sensor_id;sensor_type;location;lat;lon;timestamp;temperature;humidity
30134;DHT22;16946;49.984;10.672;2022-07-05T00:00:03;16.30;99.90
30134;DHT22;16946;49.984;10.672;2022-07-05T00:00:34;16.30;99.90
30134;DHT22;16946;49.984;10.672;2022-07-05T00:01:05;16.30;99.90
30134;DHT22;16946;49.984;10.672;2022-07-05T00:01:35;16.30;99.90
30134;DHT22;16946;49.984;10.672;2022-07-05T00:02:06;16.30;99.90
30134;DHT22;16946;49.984;10.672;2022-07-05T00:02:37;16.20;99.90
30134;DHT22;16946;49.984;10.672;2022-07-05T00:03:07;16.20;99.90
30134;DHT22;16946;49.984;10.672;2022-07-05T00:03:38;16.30;99.90
30134;DHT22;16946;49.984;10.672;2022-07-05T00:04:08;16.20;99.90
30134;DHT22;16946;49.984;10.672;2022-07-05T00:04:39;16.20;99.90
30134;DHT22;16946;49.984;10.672;2022-07-05T00:05:10;16.20;99.90
30134;DHT22;16946;49.984;10.672;2022-07-05T00:05:40;16.20;99.90
30134;DHT22;16946;49.984;10.672;2022-07-05T00:06:11;16.20;99.90
30134;DHT22;16946;49.984;10.672;2022-07-05T00:06:41;16.20;99.90
30134;DHT22;16946;49.984;10.672;2022-07-05T00:07:32;16.20;99.90
30134;DHT22;16946;49.984;10.672;2022-07-05T00:08:04;16.10;99.90
30134;DHT22;16946;49.984;10.672;2022-07-05T00:08:34;16.10;99.90
30134;DHT22;16946;49.984;10.672;2022-07-05T00:09:05;16.10;99.90
30134;DHT22;16946;49.984;10.672;2022-07-05T00:09:35;16.00;99.90
30134;DHT22;16946;49.984;10.672;2022-07-05T00:10:06;16.00;99.90
30134;DHT22;16946;49.984;10.672;2022-07-05T00:10:37;16.00;99.90
30134;DHT22;16946;49.984;10.672;2022-07-05T00:11:08;15.90;99.90
30134;DHT22;16946;49.984;10.672;2022-07-05T00:11:39;15.90;99.90
30134;DHT22;16946;49.984;10.672;2022-07-05T00:12:09;15.90;99.90
30134;DHT22;16946;49.984;10.672;2022-07-05T00:12:40;15.90;99.90
30134;DHT22;16946;49.984;10.672;2022-07-05T00:13:10;15.80;99.90
30134;DHT22;16946;49.984;10.672;2022-07-05T00:13:41;15.80;99.90
30134;DHT22;16946;49.984;10.672;2022-07-05T00:14:12;15.80;99.90
30134;DHT22;16946;49.984;10.672;2022-07-05T00:14:43;15.80;99.90
30134;DHT22;16946;49.984;10.672;2022-07-05T00:15:14;15.80;99.90
30134;DHT22;16946;49.984;10.672;2022-07-05T00:15:45;15.80;99.90
30134;DHT22;16946;49.984;10.672;2022-07-05T00:16:15;15.80;99.90
30134;DHT22;16946;49.984;10.672;2022-07-05T00:16:46;15.80;99.90
30134;DHT22;16946;49.984;10.672;2022-07-05T00:17:16;15.80;99.90
30134;DHT22;16946;49.984;10.672;2022-07-05T00:17:47;15.80;99.90
30134;DHT22;16946;49.984;10.672;2022-07-05T00:18:18;15.80;99.90
30134;DHT22;16946;49.984;10.672;2022-07-05T00:18:48;15.80;99.90
30134;DHT22;16946;49.984;10.672;2022-07-05T00:19:19;15.80;99.90
30134;DHT22;16946;49.984;10.672;2022-07-05T00:19:50;15.80;99.90
30134;DHT22;16946;49.984;10.672;2022-07-05T00:20:20;15.80;99.90
30134;DHT22;16946;49.984;10.672;2022-07-05T00:20:51;15.70;99.90
30134;DHT22;16946;49.984;10.672;2022-07-05T00:21:21;15.70;99.90
30134;DHT22;16946;49.984;10.672;2022-07-05T00:21:52;15.70;99.90
30134;DHT22;16946;49.984;10.672;2022-07-05T00:22:22;15.70;99.90
30134;DHT22;16946;49.984;10.672;2022-07-05T00:22:53;15.70;99.90
30134;DHT22;16946;49.984;10.672;2022-07-05T00:23:23;15.70;99.90
30134;DHT22;16946;49.984;10.672;2022-07-05T00:23:54;15.70;99.90
30134;DHT22;16946;49.984;10.672;2022-07-05T00:24:25;15.60;99.90
30134;DHT22;16946;49.984;10.672;2022-07-05T00:24:56;15.60;99.90
30134;DHT22;16946;49.984;10.672;2022-07-05T00:25:27;15.60;99.90
30134;DHT22;16946;49.984;10.672;2022-07-05T00:25:57;15.60;99.90
30134;DHT22;16946;49.984;10.672;2022-07-05T00:26:28;15.70;99.90
30134;DHT22;16946;49.984;10.672;2022-07-05T00:26:59;15.60;99.90
30134;DHT22;16946;49.984;10.672;2022-07-05T00:27:29;15.60;99.90
30134;DHT22;16946;49.984;10.672;2022-07-05T00:28:00;15.60;99.90
30134;DHT22;16946;49.984;10.672;2022-07-05T00:28:30;15.60;99.90
30134;DHT22;16946;49.984;10.672;2022-07-05T00:29:01;15.60;99.90
30134;DHT22;16946;49.984;10.672;2022-07-05T00:29:31;15.60;99.90
30134;DHT22;16946;49.984;10.672;2022-07-05T00:30:04;15.50;99.90
30134;DHT22;16946;49.984;10.672;2022-07-05T00:30:34;15.50;99.90
30134;DHT22;16946;49.984;10.672;2022-07-05T00:31:05;15.50;99.90
30134;DHT22;16946;49.984;10.672;2022-07-05T00:31:35;15.50;99.90
30134;DHT22;16946;49.984;10.672;2022-07-05T00:32:06;15.50;99.90
30134;DHT22;16946;49.984;10.672;2022-07-05T00:32:37;15.50;99.90
30134;DHT22;16946;49.984;10.672;2022-07-05T00:33:08;15.50;99.90
30134;DHT22;16946;49.984;10.672;2022-07-05T00:33:38;15.50;99.90
30134;DHT22;16946;49.984;10.672;2022-07-05T00:34:09;15.50;99.90
30134;DHT22;16946;49.984;10.672;2022-07-05T00:34:39;15.60;99.90
30134;DHT22;16946;49.984;10.672;2022-07-05T00:35:10;15.60;99.90
30134;DHT22;16946;49.984;10.672;2022-07-05T00:35:40;15.50;99.90
30134;DHT22;16946;49.984;10.672;2022-07-05T00:36:11;15.60;99.90
30134;DHT22;16946;49.984;10.672;2022-07-05T00:36:41;15.60;99.90
30134;DHT22;16946;49.984;10.672;2022-07-05T00:37:12;15.60;99.90
30134;DHT22;16946;49.984;10.672;2022-07-05T00:37:42;15.60;99.90
30134;DHT22;16946;49.984;10.672;2022-07-05T00:38:13;15.60;99.90
30134;DHT22;16946;49.984;10.672;2022-07-05T00:38:43;15.60;99.90
30134;DHT22;16946;49.984;10.672;2022-07-05T00:39:14;15.60;99.90
30134;DHT22;16946;49.984;10.672;2022-07-05T00:39:45;15.60;99.90
30134;DHT22;16946;49.984;10.672;2022-07-05T00:40:15;15.60;99.90
30134;DHT22;16946;49.984;10.672;2022-07-05T00:40:46;15.60;99.90
30134;DHT22;16946;49.984;10.672;2022-07-05T00:41:17;15.60;99.90
30134;DHT22;16946;49.984;10.672;2022-07-05T00:41:47;15.60;99.90
30134;DHT22;16946;49.984;10.672;2022-07-05T00:42:18;15.60;99.90
30134;DHT22;16946;49.984;10.672;2022-07-05T00:42:48;15.60;99.90
30134;DHT22;16946;49.984;10.672;2022-07-05T00:43:19;15.50;99.90
30134;DHT22;16946;49.984;10.672;2022-07-05T00:44:00;15.50;99.90
30134;DHT22;16946;49.984;10.672;2022-07-05T00:44:34;15.50;99.90
30134;DHT22;16946;49.984;10.672;2022-07-05T00:45:08;15.50;99.90
30134;DHT22;16946;49.984;10.672;2022-07-05T00:45:39;15.40;99.90
30134;DHT22;16946;49.984;10.672;2022-07-05T00:46:10;15.40;99.90
30134;DHT22;16946;49.984;10.672;2022-07-05T00:46:43;15.40;99.90
30134;DHT22;16946;49.984;10.672;2022-07-05T00:47:13;15.40;99.90
30134;DHT22;16946;49.984;10.672;2022-07-05T00:47:44;15.40;99.90
30134;DHT22;16946;49.984;10.672;2022-07-05T00:48:15;15.40;99.90
30134;DHT22;16946;49.984;10.672;2022-07-05T00:48:45;15.40;99.90
30134;DHT22;16946;49.984;10.672;2022-07-05T00:49:16;15.40;99.90
30134;DHT22;16946;49.984;10.672;2022-07-05T00:49:46;15.40;99.90
30134;DHT22;16946;49.984;10.672;2022-07-05T00:50:17;15.40;99.90
30134;DHT22;16946;49.984;10.672;2022-07-05T00:50:50;15.40;99.90
30134;DHT22;16946;49.984;10.672;2022-07-05T00:51:21;15.40;99.90
30134;DHT22;16946;49.984;10.672;2022-07-05T00:51:52;15.40;99.90
30134;DHT22;16946;49.984;10.672;2022-07-05T00:52:23;15.40;99.90
30134;DHT22;16946;49.984;10.672;2022-07-05T00:52:55;15.40;99.90
30134;DHT22;16946;49.984;10.672;2022-07-05T00:53:27;15.40;99.90
30134;DHT22;16946;49.984;10.672;2022-07-05T00:53:59;15.40;99.90
30134;DHT22;16946;49.984;10.672;2022-07-05T00:54:33;15.30;99.90
30134;DHT22;16946;49.984;10.672;2022-07-05T00:55:05;15.30;99.90
30134;DHT22;16946;49.984;10.672;2022-07-05T00:55:35;15.30;99.90
30134;DHT22;16946;49.984;10.672;2022-07-05T00:56:06;15.30;99.90
30134;DHT22;16946;49.984;10.672;2022-07-05T00:56:37;15.30;99.90
30134;DHT22;16946;49.984;10.672;2022-07-05T00:57:08;15.30;99.90
30134;DHT22;16946;49.984;10.672;2022-07-05T00:57:38;15.30;99.90
30134;DHT22;16946;49.984;10.672;2022-07-05T00:58:10;15.30;99.90
30134;DHT22;16946;49.984;10.672;2022-07-05T00:58:41;15.30;99.90
30134;DHT22;16946;49.984;10.672;2022-07-05T00:59:11;15.30;99.90
30134;DHT22;16946;49.984;10.672;2022-07-05T00:59:42;15.20;99.90
30134;DHT22;16946;49.984;10.672;2022-07-05T01:00:13;15.30;99.90
30134;DHT22;16946;49.984;10.672;2022-07-05T01:00:43;15.30;99.90
30134;DHT22;16946;49.984;10.672;2022-07-05T01:01:14;15.30;99.90
30134;DHT22;16946;49.984;10.672;2022-07-05T01:01:46;15.30;99.90
30134;DHT22;16946;49.984;10.672;2022-07-05T01:02:17;15.30;99.90
30134;DHT22;16946;49.984;10.672;2022-07-05T01:02:50;15.30;99.90
30134;DHT22;16946;49.984;10.672;2022-07-05T01:03:21;15.30;99.90
30134;DHT22;16946;49.984;10.672;2022-07-05T01:03:52;15.30;99.90
30134;DHT22;16946;49.984;10.672;2022-07-05T01:04:23;15.40;99.90
30134;DHT22;16946;49.984;10.672;2022-07-05T01:04:53;15.40;99.90
30134;DHT22;16946;49.984;10.672;2022-07-05T01:05:24;15.60;99.90
30134;DHT22;16946;49.984;10.672;2022-07-05T01:05:55;15.50;99.90
30134;DHT22;16946;49.984;10.672;2022-07-05T01:06:25;15.50;99.90
30134;DHT22;16946;49.984;10.672;2022-07-05T01:06:56;15.50;99.90
30134;DHT22;16946;49.984;10.672;2022-07-05T01:07:28;15.60;99.90
30134;DHT22;16946;49.984;10.672;2022-07-05T01:07:59;15.60;99.90
30134;DHT22;16946;49.984;10.672;2022-07-05T01:08:33;15.60;99.90
30134;DHT22;16946;49.984;10.672;2022-07-05T01:09:04;15.60;99.90
30134;DHT22;16946;49.984;10.672;2022-07-05T01:09:35;15.70;99.90
30134;DHT22;16946;49.984;10.672;2022-07-05T01:10:06;15.70;99.90
30134;DHT22;16946;49.984;10.672;2022-07-05T01:10:37;15.80;99.90
30134;DHT22;16946;49.984;10.672;2022-07-05T01:11:09;15.80;99.90
30134;DHT22;16946;49.984;10.672;2022-07-05T01:11:41;15.70;99.90
30134;DHT22;16946;49.984;10.672;2022-07-05T01:12:12;15.70;99.90
30134;DHT22;16946;49.984;10.672;2022-07-05T01:12:43;15.60;99.90
30134;DHT22;16946;49.984;10.672;2022-07-05T01:13:14;15.60;99.90
30134;DHT22;16946;49.984;10.672;2022-07-05T01:13:44;15.60;99.90
30134;DHT22;16946;49.984;10.672;2022-07-05T01:14:20;15.50;99.90
30134;DHT22;16946;49.984;10.672;2022-07-05T01:14:52;15.50;99.90
30134;DHT22;16946;49.984;10.672;2022-07-05T01:15:25;15.40;99.90
30134;DHT22;16946;49.984;10.672;2022-07-05T01:15:56;15.40;99.90
30134;DHT22;16946;49.984;10.672;2022-07-05T01:16:28;15.30;99.90
30134;DHT22;16946;49.984;10.672;2022-07-05T01:16:59;15.30;99.90
30134;DHT22;16946;49.984;10.672;2022-07-05T01:17:29;15.30;99.90
30134;DHT22;16946;49.984;10.672;2022-07-05T01:18:00;15.20;99.90
30134;DHT22;16946;49.984;10.672;2022-07-05T01:18:31;15.20;99.90
30134;DHT22;16946;49.984;10.672;2022-07-05T01:19:04;15.20;99.90
30134;DHT22;16946;49.984;10.672;2022-07-05T01:19:37;15.40;99.90
30134;DHT22;16946;49.984;10.672;2022-07-05T01:20:08;15.60;99.90
30134;DHT22;16946;49.984;10.672;2022-07-05T01:20:39;15.90;99.90
30134;DHT22;16946;49.984;10.672;2022-07-05T01:21:13;16.00;99.90
30134;DHT22;16946;49.984;10.672;2022-07-05T01:21:45;16.00;99.90
30134;DHT22;16946;49.984;10.672;2022-07-05T01:22:18;16.10;99.90
30134;DHT22;16946;49.984;10.672;2022-07-05T01:22:53;16.10;99.90
30134;DHT22;16946;49.984;10.672;2022-07-05T01:23:26;16.10;99.90
30134;DHT22;16946;49.984;10.672;2022-07-05T01:23:57;16.10;99.90
30134;DHT22;16946;49.984;10.672;2022-07-05T01:24:28;16.00;99.90
30134;DHT22;16946;49.984;10.672;2022-07-05T01:24:59;16.00;99.90
30134;DHT22;16946;49.984;10.672;2022-07-05T01:25:30;16.00;99.90
30134;DHT22;16946;49.984;10.672;2022-07-05T01:26:01;16.00;99.90
30134;DHT22;16946;49.984;10.672;2022-07-05T01:26:33;16.10;99.90
30134;DHT22;16946;49.984;10.672;2022-07-05T01:27:04;16.30;99.90
30134;DHT22;16946;49.984;10.672;2022-07-05T01:27:37;16.30;99.90
30134;DHT22;16946;49.984;10.672;2022-07-05T01:28:07;16.30;99.90
30134;DHT22;16946;49.984;10.672;2022-07-05T01:28:38;16.20;99.90
30134;DHT22;16946;49.984;10.672;2022-07-05T01:29:09;16.10;99.90
30134;DHT22;16946;49.984;10.672;2022-07-05T01:29:41;16.00;99.90
30134;DHT22;16946;49.984;10.672;2022-07-05T01:30:12;16.00;99.90
30134;DHT22;16946;49.984;10.672;2022-07-05T01:30:43;15.90;99.90
30134;DHT22;16946;49.984;10.672;2022-07-05T01:31:14;15.80;99.90
30134;DHT22;16946;49.984;10.672;2022-07-05T01:31:45;15.70;99.90
30134;DHT22;16946;49.984;10.672;2022-07-05T01:32:16;15.70;99.90
30134;DHT22;16946;49.984;10.672;2022-07-05T01:32:47;15.60;99.90
30134;DHT22;16946;49.984;10.672;2022-07-05T01:33:17;15.50;99.90
30134;DHT22;16946;49.984;10.672;2022-07-05T01:33:48;15.50;99.90
30134;DHT22;16946;49.984;10.672;2022-07-05T01:34:18;15.40;99.90
30134;DHT22;16946;49.984;10.672;2022-07-05T01:34:49;15.40;99.90
30134;DHT22;16946;49.984;10.672;2022-07-05T01:35:20;15.30;99.90
30134;DHT22;16946;49.984;10.672;2022-07-05T01:35:51;15.20;99.90
30134;DHT22;16946;49.984;10.672;2022-07-05T01:36:21;15.20;99.90
30134;DHT22;16946;49.984;10.672;2022-07-05T01:36:52;15.20;99.90
30134;DHT22;16946;49.984;10.672;2022-07-05T01:37:23;15.10;99.90
30134;DHT22;16946;49.984;10.672;2022-07-05T01:37:53;15.10;99.90
30134;DHT22;16946;49.984;10.672;2022-07-05T01:38:25;15.10;99.90
30134;DHT22;16946;49.984;10.672;2022-07-05T01:38:55;15.10;99.90
30134;DHT22;16946;49.984;10.672;2022-07-05T01:39:26;15.10;99.90
30134;DHT22;16946;49.984;10.672;2022-07-05T01:39:58;15.10;99.90
30134;DHT22;16946;49.984;10.672;2022-07-05T01:40:29;15.00;99.90
30134;DHT22;16946;49.984;10.672;2022-07-05T01:41:00;15.00;99.90
30134;DHT22;16946;49.984;10.672;2022-07-05T01:41:30;15.00;99.90
30134;DHT22;16946;49.984;10.672;2022-07-05T01:42:02;15.00;99.90
30134;DHT22;16946;49.984;10.672;2022-07-05T01:42:32;15.00;99.90
30134;DHT22;16946;49.984;10.672;2022-07-05T01:43:04;14.90;99.90
30134;DHT22;16946;49.984;10.672;2022-07-05T01:43:35;15.00;99.90
30134;DHT22;16946;49.984;10.672;2022-07-05T01:44:05;15.00;99.90
30134;DHT22;16946;49.984;10.672;2022-07-05T01:44:36;15.10;99.90
30134;DHT22;16946;49.984;10.672;2022-07-05T01:45:08;15.10;99.90
30134;DHT22;16946;49.984;10.672;2022-07-05T01:45:38;15.30;99.90
30134;DHT22;16946;49.984;10.672;2022-07-05T01:46:09;15.40;99.90
30134;DHT22;16946;49.984;10.672;2022-07-05T01:46:42;15.50;99.90
30134;DHT22;16946;49.984;10.672;2022-07-05T01:47:15;15.50;99.90
30134;DHT22;16946;49.984;10.672;2022-07-05T01:47:47;15.50;99.90
30134;DHT22;16946;49.984;10.672;2022-07-05T01:48:19;15.40;99.90
30134;DHT22;16946;49.984;10.672;2022-07-05T01:48:53;15.40;99.90
30134;DHT22;16946;49.984;10.672;2022-07-05T01:49:26;15.40;99.90
30134;DHT22;16946;49.984;10.672;2022-07-05T01:49:59;15.30;99.90
30134;DHT22;16946;49.984;10.672;2022-07-05T01:50:35;15.30;99.90
30134;DHT22;16946;49.984;10.672;2022-07-05T01:51:13;15.40;99.90
30134;DHT22;16946;49.984;10.672;2022-07-05T01:51:55;15.30;99.90
30134;DHT22;16946;49.984;10.672;2022-07-05T01:52:27;15.40;99.90
30134;DHT22;16946;49.984;10.672;2022-07-05T01:53:00;15.30;99.90
30134;DHT22;16946;49.984;10.672;2022-07-05T01:53:33;15.30;99.90
30134;DHT22;16946;49.984;10.672;2022-07-05T01:54:04;15.20;99.90
30134;DHT22;16946;49.984;10.672;2022-07-05T01:54:36;15.20;99.90
30134;DHT22;16946;49.984;10.672;2022-07-05T01:55:06;15.20;99.90
30134;DHT22;16946;49.984;10.672;2022-07-05T01:55:37;15.20;99.90
30134;DHT22;16946;49.984;10.672;2022-07-05T01:56:09;15.10;99.90
30134;DHT22;16946;49.984;10.672;2022-07-05T01:56:40;15.10;99.90
30134;DHT22;16946;49.984;10.672;2022-07-05T01:57:10;15.00;99.90
30134;DHT22;16946;49.984;10.672;2022-07-05T01:57:41;15.20;99.90
30134;DHT22;16946;49.984;10.672;2022-07-05T01:58:12;15.20;99.90
30134;DHT22;16946;49.984;10.672;2022-07-05T01:58:43;15.30;99.90
30134;DHT22;16946;49.984;10.672;2022-07-05T01:59:14;15.40;99.90
30134;DHT22;16946;49.984;10.672;2022-07-05T01:59:45;15.40;99.90
30134;DHT22;16946;49.984;10.672;2022-07-05T02:00:15;15.40;99.90
30134;DHT22;16946;49.984;10.672;2022-07-05T02:00:49;15.50;99.90
30134;DHT22;16946;49.984;10.672;2022-07-05T02:01:37;15.40;99.90
30134;DHT22;16946;49.984;10.672;2022-07-05T02:02:08;15.60;99.90
30134;DHT22;16946;49.984;10.672;2022-07-05T02:02:41;15.60;99.90
30134;DHT22;16946;49.984;10.672;2022-07-05T02:03:13;15.60;99.90
30134;DHT22;16946;49.984;10.672;2022-07-05T02:03:44;15.50;99.90
30134;DHT22;16946;49.984;10.672;2022-07-05T02:04:16;15.50;99.90
30134;DHT22;16946;49.984;10.672;2022-07-05T02:04:48;15.40;99.90
30134;DHT22;16946;49.984;10.672;2022-07-05T02:05:18;15.40;99.90
30134;DHT22;16946;49.984;10.672;2022-07-05T02:05:50;15.30;99.90
30134;DHT22;16946;49.984;10.672;2022-07-05T02:06:20;15.30;99.90
30134;DHT22;16946;49.984;10.672;2022-07-05T02:06:51;15.30;99.90
30134;DHT22;16946;49.984;10.672;2022-07-05T02:07:22;15.40;99.90
30134;DHT22;16946;49.984;10.672;2022-07-05T02:07:52;15.40;99.90
30134;DHT22;16946;49.984;10.672;2022-07-05T02:08:28;15.40;99.90
30134;DHT22;16946;49.984;10.672;2022-07-05T02:09:01;15.40;99.90
30134;DHT22;16946;49.984;10.672;2022-07-05T02:09:32;15.30;99.90
30134;DHT22;16946;49.984;10.672;2022-07-05T02:10:04;15.30;99.90
30134;DHT22;16946;49.984;10.672;2022-07-05T02:10:35;15.60;99.90
30134;DHT22;16946;49.984;10.672;2022-07-05T02:11:06;15.60;99.90
30134;DHT22;16946;49.984;10.672;2022-07-05T02:11:36;15.50;99.90
30134;DHT22;16946;49.984;10.672;2022-07-05T02:12:07;15.60;99.90
30134;DHT22;16946;49.984;10.672;2022-07-05T02:12:38;15.80;99.90
30134;DHT22;16946;49.984;10.672;2022-07-05T02:13:09;15.90;99.90
30134;DHT22;16946;49.984;10.672;2022-07-05T02:13:40;16.00;99.90
30134;DHT22;16946;49.984;10.672;2022-07-05T02:14:10;15.90;99.90
30134;DHT22;16946;49.984;10.672;2022-07-05T02:14:42;15.90;99.90
30134;DHT22;16946;49.984;10.672;2022-07-05T02:15:12;15.90;99.90
30134;DHT22;16946;49.984;10.672;2022-07-05T02:15:43;16.00;99.90
30134;DHT22;16946;49.984;10.672;2022-07-05T02:16:13;16.00;99.90
30134;DHT22;16946;49.984;10.672;2022-07-05T02:16:44;16.00;99.90
30134;DHT22;16946;49.984;10.672;2022-07-05T02:17:14;16.00;99.90
30134;DHT22;16946;49.984;10.672;2022-07-05T02:17:45;15.90;99.90
30134;DHT22;16946;49.984;10.672;2022-07-05T02:18:15;15.90;99.90
30134;DHT22;16946;49.984;10.672;2022-07-05T02:18:46;15.80;99.90
30134;DHT22;16946;49.984;10.672;2022-07-05T02:19:17;15.90;99.90
30134;DHT22;16946;49.984;10.672;2022-07-05T02:19:47;15.90;99.90
30134;DHT22;16946;49.984;10.672;2022-07-05T02:20:18;16.00;99.90
30134;DHT22;16946;49.984;10.672;2022-07-05T02:20:48;16.10;99.90
30134;DHT22;16946;49.984;10.672;2022-07-05T02:21:19;16.10;99.90
30134;DHT22;16946;49.984;10.672;2022-07-05T02:21:50;16.10;99.90
30134;DHT22;16946;49.984;10.672;2022-07-05T02:22:20;16.20;99.90
30134;DHT22;16946;49.984;10.672;2022-07-05T02:22:51;16.20;99.90
30134;DHT22;16946;49.984;10.672;2022-07-05T02:23:21;16.20;99.90
30134;DHT22;16946;49.984;10.672;2022-07-05T02:23:52;16.20;99.90
30134;DHT22;16946;49.984;10.672;2022-07-05T02:24:23;16.20;99.90
30134;DHT22;16946;49.984;10.672;2022-07-05T02:24:55;16.20;99.90
30134;DHT22;16946;49.984;10.672;2022-07-05T02:25:25;16.20;99.90
30134;DHT22;16946;49.984;10.672;2022-07-05T02:25:56;16.10;99.90
30134;DHT22;16946;49.984;10.672;2022-07-05T02:26:27;16.10;99.90
30134;DHT22;16946;49.984;10.672;2022-07-05T02:26:57;16.10;99.90
30134;DHT22;16946;49.984;10.672;2022-07-05T02:27:28;16.40;99.90
30134;DHT22;16946;49.984;10.672;2022-07-05T02:27:59;16.40;99.90
30134;DHT22;16946;49.984;10.672;2022-07-05T02:28:30;16.40;99.90
30134;DHT22;16946;49.984;10.672;2022-07-05T02:29:02;16.30;99.90
30134;DHT22;16946;49.984;10.672;2022-07-05T02:29:32;16.20;99.90
30134;DHT22;16946;49.984;10.672;2022-07-05T02:30:03;16.10;99.90
30134;DHT22;16946;49.984;10.672;2022-07-05T02:30:34;16.00;99.90
30134;DHT22;16946;49.984;10.672;2022-07-05T02:31:05;15.90;99.90
30134;DHT22;16946;49.984;10.672;2022-07-05T02:31:35;15.80;99.90
30134;DHT22;16946;49.984;10.672;2022-07-05T02:32:06;15.70;99.90
30134;DHT22;16946;49.984;10.672;2022-07-05T02:32:36;15.60;99.90
30134;DHT22;16946;49.984;10.672;2022-07-05T02:33:07;15.50;99.90
30134;DHT22;16946;49.984;10.672;2022-07-05T02:33:38;15.40;99.90
30134;DHT22;16946;49.984;10.672;2022-07-05T02:34:08;15.30;99.90
30134;DHT22;16946;49.984;10.672;2022-07-05T02:34:39;15.20;99.90
30134;DHT22;16946;49.984;10.672;2022-07-05T02:35:10;15.10;99.90
30134;DHT22;16946;49.984;10.672;2022-07-05T02:35:41;15.00;99.90
30134;DHT22;16946;49.984;10.672;2022-07-05T02:36:13;15.00;99.90
30134;DHT22;16946;49.984;10.672;2022-07-05T02:36:43;14.90;99.90
30134;DHT22;16946;49.984;10.672;2022-07-05T02:37:14;14.90;99.90
30134;DHT22;16946;49.984;10.672;2022-07-05T02:37:44;14.90;99.90
30134;DHT22;16946;49.984;10.672;2022-07-05T02:38:15;14.80;99.90
30134;DHT22;16946;49.984;10.672;2022-07-05T02:38:45;14.80;99.90
30134;DHT22;16946;49.984;10.672;2022-07-05T02:39:16;14.70;99.90
30134;DHT22;16946;49.984;10.672;2022-07-05T02:39:46;14.70;99.90
30134;DHT22;16946;49.984;10.672;2022-07-05T02:40:17;14.60;99.90
30134;DHT22;16946;49.984;10.672;2022-07-05T02:40:47;14.50;99.90
30134;DHT22;16946;49.984;10.672;2022-07-05T02:41:18;14.50;99.90
30134;DHT22;16946;49.984;10.672;2022-07-05T02:41:49;14.50;99.90
30134;DHT22;16946;49.984;10.672;2022-07-05T02:42:19;14.40;99.90
30134;DHT22;16946;49.984;10.672;2022-07-05T02:42:50;14.30;99.90
30134;DHT22;16946;49.984;10.672;2022-07-05T02:43:20;14.30;99.90
30134;DHT22;16946;49.984;10.672;2022-07-05T02:43:51;14.20;99.90
30134;DHT22;16946;49.984;10.672;2022-07-05T02:44:22;14.20;99.90
30134;DHT22;16946;49.984;10.672;2022-07-05T02:44:52;14.10;99.90
30134;DHT22;16946;49.984;10.672;2022-07-05T02:45:23;14.10;99.90
30134;DHT22;16946;49.984;10.672;2022-07-05T02:45:53;14.10;99.90
30134;DHT22;16946;49.984;10.672;2022-07-05T02:46:24;14.00;99.90
30134;DHT22;16946;49.984;10.672;2022-07-05T02:46:55;14.00;99.90
30134;DHT22;16946;49.984;10.672;2022-07-05T02:47:25;14.10;99.90
30134;DHT22;16946;49.984;10.672;2022-07-05T02:47:57;14.10;99.90
30134;DHT22;16946;49.984;10.672;2022-07-05T02:48:28;14.10;99.90
30134;DHT22;16946;49.984;10.672;2022-07-05T02:48:58;14.10;99.90
30134;DHT22;16946;49.984;10.672;2022-07-05T02:49:29;14.10;99.90
30134;DHT22;16946;49.984;10.672;2022-07-05T02:50:07;14.10;99.90
30134;DHT22;16946;49.984;10.672;2022-07-05T02:50:38;14.10;99.90
30134;DHT22;16946;49.984;10.672;2022-07-05T02:51:09;14.10;99.90
30134;DHT22;16946;49.984;10.672;2022-07-05T02:51:39;14.00;99.90
30134;DHT22;16946;49.984;10.672;2022-07-05T02:52:10;14.00;99.90
30134;DHT22;16946;49.984;10.672;2022-07-05T02:52:40;14.00;99.90
30134;DHT22;16946;49.984;10.672;2022-07-05T02:53:11;14.10;99.90
30134;DHT22;16946;49.984;10.672;2022-07-05T02:53:41;14.10;99.90
30134;DHT22;16946;49.984;10.672;2022-07-05T02:54:12;14.10;99.90
30134;DHT22;16946;49.984;10.672;2022-07-05T02:54:43;14.10;99.90
30134;DHT22;16946;49.984;10.672;2022-07-05T02:55:13;14.10;99.90
30134;DHT22;16946;49.984;10.672;2022-07-05T02:55:44;14.10;99.90
30134;DHT22;16946;49.984;10.672;2022-07-05T02:56:14;14.10;99.90
30134;DHT22;16946;49.984;10.672;2022-07-05T02:56:45;14.10;99.90
30134;DHT22;16946;49.984;10.672;2022-07-05T02:57:15;14.00;99.90
30134;DHT22;16946;49.984;10.672;2022-07-05T02:57:46;14.00;99.90
30134;DHT22;16946;49.984;10.672;2022-07-05T02:58:16;14.00;99.90
30134;DHT22;16946;49.984;10.672;2022-07-05T02:58:47;14.00;99.90
30134;DHT22;16946;49.984;10.672;2022-07-05T02:59:17;14.00;99.90
30134;DHT22;16946;49.984;10.672;2022-07-05T02:59:48;14.00;99.90
30134;DHT22;16946;49.984;10.672;2022-07-05T03:00:18;14.00;99.90
30134;DHT22;16946;49.984;10.672;2022-07-05T03:00:49;14.00;99.90
30134;DHT22;16946;49.984;10.672;2022-07-05T03:01:20;13.90;99.90
30134;DHT22;16946;49.984;10.672;2022-07-05T03:01:50;13.90;99.90
30134;DHT22;16946;49.984;10.672;2022-07-05T03:02:21;13.90;99.90
30134;DHT22;16946;49.984;10.672;2022-07-05T03:02:52;13.90;99.90
30134;DHT22;16946;49.984;10.672;2022-07-05T03:03:23;13.90;99.90
30134;DHT22;16946;49.984;10.672;2022-07-05T03:03:54;13.90;99.90
30134;DHT22;16946;49.984;10.672;2022-07-05T03:04:24;13.80;99.90
30134;DHT22;16946;49.984;10.672;2022-07-05T03:04:55;13.80;99.90
30134;DHT22;16946;49.984;10.672;2022-07-05T03:05:25;13.90;99.90
30134;DHT22;16946;49.984;10.672;2022-07-05T03:05:56;13.90;99.90
30134;DHT22;16946;49.984;10.672;2022-07-05T03:06:26;13.90;99.90
30134;DHT22;16946;49.984;10.672;2022-07-05T03:06:57;13.90;99.90
30134;DHT22;16946;49.984;10.672;2022-07-05T03:07:28;13.90;99.90
30134;DHT22;16946;49.984;10.672;2022-07-05T03:07:58;13.90;99.90
30134;DHT22;16946;49.984;10.672;2022-07-05T03:08:29;13.90;99.90
30134;DHT22;16946;49.984;10.672;2022-07-05T03:09:00;13.90;99.90
30134;DHT22;16946;49.984;10.672;2022-07-05T03:09:30;13.90;99.90
30134;DHT22;16946;49.984;10.672;2022-07-05T03:10:01;13.80;99.90
30134;DHT22;16946;49.984;10.672;2022-07-05T03:10:31;13.80;99.90
30134;DHT22;16946;49.984;10.672;2022-07-05T03:11:02;13.90;99.90
30134;DHT22;16946;49.984;10.672;2022-07-05T03:11:32;13.90;99.90
30134;DHT22;16946;49.984;10.672;2022-07-05T03:12:03;13.90;99.90
30134;DHT22;16946;49.984;10.672;2022-07-05T03:12:34;13.90;99.90
30134;DHT22;16946;49.984;10.672;2022-07-05T03:13:05;13.90;99.90
30134;DHT22;16946;49.984;10.672;2022-07-05T03:13:35;13.80;99.90